Time;durP1;ratioP1;P1;durP2;ratioP2;P2;SDS_P1;SDS_P2;PMS_P1;PMS_P2;Temp;Humidity;BMP_temperature;BMP_pressure;BME280_temperature;BME280_humidity;BME280_pressure;Samples;Min_cycle;Max_cycle;Signal;HPM_P1;HPM_P2
2021/03/30 00:00:19;;;;;;;10.40;3.10;;;15.10;52.70;;;;;;5046593;28;20965;-75
2021/03/30 00:02:45;;;;;;;11.47;3.53;;;15.10;53.00;;;;;;5058178;28;20433;-75
2021/03/30 00:05:12;;;;;;;11.17;3.40;;;15.00;53.40;;;;;;5059290;28;21001;-75
2021/03/30 00:07:40;;;;;;;12.18;4.07;;;15.00;53.80;;;;;;5060371;28;20437;-76
2021/03/30 00:10:10;;;;;;;11.38;3.33;;;15.00;54.40;;;;;;5054167;28;20416;-74
2021/03/30 00:12:36;;;;;;;14.30;3.20;;;15.00;54.70;;;;;;5058678;28;20762;-75
2021/03/30 00:15:04;;;;;;;12.93;3.55;;;14.90;55.10;;;;;;5050246;28;20971;-75
2021/03/30 00:17:30;;;;;;;11.07;3.50;;;14.90;55.40;;;;;;5051912;28;20440;-75
2021/03/30 00:19:56;;;;;;;9.05;3.28;;;14.90;55.40;;;;;;5055731;28;20427;-76
2021/03/30 00:22:23;;;;;;;10.68;3.50;;;14.80;55.30;;;;;;5046876;28;20447;-74
2021/03/30 00:24:50;;;;;;;10.82;3.25;;;14.80;55.50;;;;;;5060645;28;20427;-75
2021/03/30 00:27:16;;;;;;;12.90;3.65;;;14.80;55.70;;;;;;5049857;28;20436;-75
2021/03/30 00:29:43;;;;;;;12.05;3.78;;;14.80;56.10;;;;;;5060025;28;20427;-75
2021/03/30 00:32:10;;;;;;;11.98;3.80;;;14.70;56.60;;;;;;5059486;28;20518;-75
2021/03/30 00:34:36;;;;;;;13.23;3.50;;;14.70;57.30;;;;;;5060106;28;20476;-75
2021/03/30 00:37:04;;;;;;;15.05;3.92;;;14.70;57.90;;;;;;5060707;28;20432;-76
2021/03/30 00:39:31;;;;;;;13.50;3.60;;;14.60;58.30;;;;;;5059146;28;20899;-76
2021/03/30 00:41:58;;;;;;;16.45;4.03;;;14.60;58.50;;;;;;5037480;28;20420;-76
2021/03/30 00:44:25;;;;;;;18.35;4.28;;;14.60;58.60;;;;;;5042936;28;20431;-75
2021/03/30 00:46:52;;;;;;;15.52;3.70;;;14.50;58.80;;;;;;5059489;28;20500;-77
2021/03/30 00:49:20;;;;;;;12.05;3.78;;;14.40;58.70;;;;;;5038592;28;20429;-76
2021/03/30 00:51:48;;;;;;;13.27;3.67;;;14.40;58.90;;;;;;5041749;28;20779;-75
2021/03/30 00:54:34;;;;;;;12.75;3.40;;;14.40;59.00;;;;;;5057237;28;20818;-75
2021/03/30 00:57:10;;;;;;;14.98;3.95;;;14.30;59.10;;;;;;5055747;28;20850;-75
2021/03/30 00:59:37;;;;;;;17.67;4.30;;;14.30;59.50;;;;;;5060181;28;20552;-75
2021/03/30 01:02:03;;;;;;;15.20;3.90;;;14.30;59.60;;;;;;5057203;28;20540;-75
2021/03/30 01:04:30;;;;;;;15.43;4.00;;;14.30;59.60;;;;;;5057550;28;20907;-75
2021/03/30 01:06:56;;;;;;;14.38;3.90;;;14.20;59.30;;;;;;5053914;28;20487;-76
2021/03/30 01:09:32;;;;;;;15.05;3.85;;;14.20;58.80;;;;;;5057175;28;20427;-76
2021/03/30 01:12:19;;;;;;;15.80;4.05;;;14.20;58.60;;;;;;5055495;28;20435;-75
2021/03/30 01:14:53;;;;;;;13.50;3.63;;;14.20;58.50;;;;;;5049647;28;20447;-74
2021/03/30 01:17:28;;;;;;;14.15;3.80;;;14.20;58.80;;;;;;5055977;28;20430;-75
2021/03/30 01:20:25;;;;;;;14.50;4.20;;;14.10;59.00;;;;;;5054328;28;20432;-75
2021/03/30 01:23:22;;;;;;;16.27;4.03;;;14.00;59.50;;;;;;5060036;28;20766;-75
2021/03/30 01:26:02;;;;;;;16.10;4.18;;;14.00;60.00;;;;;;4986695;28;20441;-75
2021/03/30 01:28:33;;;;;;;13.38;4.10;;;14.00;60.00;;;;;;5042550;28;20783;-76
2021/03/30 01:31:02;;;;;;;15.10;3.65;;;14.00;60.20;;;;;;5064068;28;20427;-74
2021/03/30 01:33:31;;;;;;;17.80;4.07;;;13.90;59.90;;;;;;5057242;28;20419;-75
2021/03/30 01:35:58;;;;;;;13.95;3.85;;;13.90;60.00;;;;;;5062308;28;20427;-74
2021/03/30 01:38:26;;;;;;;14.75;4.00;;;13.80;60.00;;;;;;5061984;28;20449;-75
2021/03/30 01:40:54;;;;;;;14.50;3.65;;;13.80;59.70;;;;;;5061583;28;20438;-74
2021/03/30 01:43:22;;;;;;;14.07;3.85;;;13.70;59.70;;;;;;5063715;28;20433;-73
2021/03/30 01:45:52;;;;;;;14.43;3.85;;;13.70;59.90;;;;;;5059531;28;20514;-75
2021/03/30 01:48:21;;;;;;;14.75;3.67;;;13.70;59.60;;;;;;5050956;28;20862;-75
2021/03/30 01:50:48;;;;;;;14.88;4.20;;;13.70;59.80;;;;;;5060570;28;20428;-76
2021/03/30 01:53:17;;;;;;;14.82;3.75;;;13.70;59.80;;;;;;5062049;28;20426;-74
2021/03/30 01:55:45;;;;;;;13.70;3.50;;;13.70;59.80;;;;;;5060016;28;20446;-75
2021/03/30 01:58:12;;;;;;;17.37;4.00;;;13.60;59.90;;;;;;5063957;28;20442;-75
2021/03/30 02:00:39;;;;;;;13.52;3.80;;;13.60;60.10;;;;;;5063966;28;20500;-75
2021/03/30 02:03:07;;;;;;;13.15;3.80;;;13.60;60.00;;;;;;5061528;28;20423;-76
2021/03/30 02:05:35;;;;;;;13.52;3.53;;;13.50;60.10;;;;;;5065904;28;20833;-74
2021/03/30 02:08:03;;;;;;;15.33;3.70;;;13.50;60.30;;;;;;5058811;28;20437;-75
2021/03/30 02:10:34;;;;;;;14.43;3.93;;;13.50;60.40;;;;;;5058163;28;20444;-74
2021/03/30 02:13:03;;;;;;;16.87;4.17;;;13.50;60.80;;;;;;5060872;28;20476;-74
2021/03/30 02:15:29;;;;;;;15.98;4.10;;;13.50;61.10;;;;;;5063402;28;20429;-74
2021/03/30 02:18:02;;;;;;;15.45;4.40;;;13.40;61.80;;;;;;5061065;28;20427;-75
2021/03/30 02:20:33;;;;;;;15.90;4.63;;;13.40;63.10;;;;;;5060104;28;20431;-76
2021/03/30 02:23:04;;;;;;;18.80;5.07;;;13.30;65.00;;;;;;5061612;28;20513;-75
2021/03/30 02:25:32;;;;;;;20.67;5.25;;;13.20;66.30;;;;;;5044348;28;20425;-74
2021/03/30 02:28:04;;;;;;;16.98;4.93;;;13.20;67.20;;;;;;5057079;28;20516;-75
2021/03/30 02:30:34;;;;;;;13.40;4.97;;;13.20;67.80;;;;;;5056927;28;20428;-76
2021/03/30 02:33:01;;;;;;;17.42;4.97;;;13.10;68.20;;;;;;5064235;28;20443;-76
2021/03/30 02:35:28;;;;;;;20.38;5.20;;;13.10;68.60;;;;;;5055553;28;20425;-76
2021/03/30 02:37:56;;;;;;;19.30;4.95;;;13.10;68.40;;;;;;5058435;28;20438;-77
2021/03/30 02:40:24;;;;;;;18.13;5.50;;;13.00;68.30;;;;;;5061359;28;20851;-76
2021/03/30 02:42:53;;;;;;;16.00;4.93;;;13.00;68.10;;;;;;5045357;28;20432;-73
2021/03/30 02:45:24;;;;;;;16.40;5.00;;;13.00;67.70;;;;;;5054508;28;20437;-75
2021/03/30 02:47:51;;;;;;;17.73;4.65;;;13.00;67.50;;;;;;5062905;28;20435;-74
2021/03/30 02:50:21;;;;;;;18.98;5.13;;;12.90;67.50;;;;;;5060292;28;20421;-75
2021/03/30 02:52:48;;;;;;;15.98;5.00;;;12.90;67.70;;;;;;5045923;28;20427;-74
2021/03/30 02:55:15;;;;;;;14.67;4.57;;;12.90;68.10;;;;;;5059727;28;20427;-75
2021/03/30 02:57:42;;;;;;;14.73;4.80;;;12.90;68.40;;;;;;5057407;28;20431;-74
2021/03/30 03:00:10;;;;;;;16.42;4.93;;;12.90;69.40;;;;;;5060280;28;20892;-76
2021/03/30 03:02:38;;;;;;;17.90;5.13;;;12.90;68.80;;;;;;5057721;28;20429;-75
2021/03/30 03:05:07;;;;;;;21.02;5.40;;;12.90;69.00;;;;;;5060679;28;20435;-76
2021/03/30 03:07:34;;;;;;;18.60;5.43;;;12.90;69.20;;;;;;5060464;28;20486;-76
2021/03/30 03:10:01;;;;;;;17.52;5.25;;;12.90;69.10;;;;;;5059438;28;22253;-73
2021/03/30 03:12:30;;;;;;;15.65;4.70;;;12.90;69.10;;;;;;5059405;28;20899;-76
2021/03/30 03:14:58;;;;;;;19.20;5.35;;;12.80;68.90;;;;;;5059084;28;20909;-74
2021/03/30 03:17:26;;;;;;;16.35;5.65;;;12.80;68.70;;;;;;5041938;28;20585;-75
2021/03/30 03:19:54;;;;;;;17.50;5.53;;;12.80;68.60;;;;;;5044913;28;20427;-75
2021/03/30 03:22:20;;;;;;;15.45;5.43;;;12.80;68.50;;;;;;5053314;28;20437;-77
2021/03/30 03:24:47;;;;;;;14.55;5.15;;;12.80;68.50;;;;;;5059177;28;20421;-76
2021/03/30 03:27:14;;;;;;;16.60;5.30;;;12.80;68.50;;;;;;5055777;28;20908;-76
2021/03/30 03:29:41;;;;;;;14.70;5.40;;;12.80;68.50;;;;;;5054711;28;20921;-76
2021/03/30 03:32:09;;;;;;;18.33;5.10;;;12.70;68.20;;;;;;5056663;28;20433;-77
2021/03/30 03:34:36;;;;;;;14.55;5.47;;;12.70;68.10;;;;;;5055394;28;20999;-76
2021/03/30 03:37:03;;;;;;;16.40;5.00;;;12.80;68.00;;;;;;5057059;28;20424;-75
2021/03/30 03:39:30;;;;;;;17.40;5.80;;;12.70;68.00;;;;;;5061509;28;20493;-74
2021/03/30 03:41:56;;;;;;;20.57;6.10;;;12.80;68.30;;;;;;5057941;28;20895;-76
2021/03/30 03:44:25;;;;;;;19.48;6.47;;;12.70;68.60;;;;;;5057368;28;20469;-74
2021/03/30 03:46:51;;;;;;;16.95;5.70;;;12.70;69.10;;;;;;5054895;28;20432;-74
2021/03/30 03:49:19;;;;;;;18.88;6.57;;;12.70;69.70;;;;;;5064130;28;20911;-74
2021/03/30 03:51:49;;;;;;;19.65;6.40;;;12.70;70.20;;;;;;5052927;28;20420;-76
2021/03/30 03:54:19;;;;;;;18.10;6.60;;;12.70;70.60;;;;;;5044019;28;20996;-76
2021/03/30 03:56:48;;;;;;;19.17;6.70;;;12.70;70.70;;;;;;5058507;28;20607;-76
2021/03/30 03:59:18;;;;;;;22.90;6.80;;;12.70;70.70;;;;;;5055060;28;20433;-75
2021/03/30 04:01:49;;;;;;;20.52;7.13;;;12.70;70.60;;;;;;5040068;28;20428;-73
2021/03/30 04:04:23;;;;;;;22.88;7.38;;;12.60;70.50;;;;;;5056149;28;20904;-76
2021/03/30 04:06:55;;;;;;;18.25;7.00;;;12.60;70.60;;;;;;5041953;28;20433;-77
2021/03/30 04:09:25;;;;;;;23.27;7.43;;;12.60;70.70;;;;;;5056078;28;20823;-76
2021/03/30 04:11:53;;;;;;;15.60;7.00;;;12.60;70.70;;;;;;5040988;28;20433;-76
2021/03/30 04:14:20;;;;;;;21.52;7.55;;;12.60;70.70;;;;;;5054260;28;20435;-76
2021/03/30 04:16:46;;;;;;;18.45;7.40;;;12.60;70.70;;;;;;5038784;28;20966;-76
2021/03/30 04:19:13;;;;;;;19.85;7.47;;;12.60;70.60;;;;;;5038607;28;20771;-74
2021/03/30 04:21:40;;;;;;;23.35;7.60;;;12.60;70.70;;;;;;5058252;28;20435;-74
2021/03/30 04:24:08;;;;;;;21.60;7.38;;;12.60;70.80;;;;;;5055505;28;20914;-76
2021/03/30 04:26:35;;;;;;;16.90;7.47;;;12.60;70.90;;;;;;5039691;28;20932;-76
2021/03/30 04:29:02;;;;;;;19.63;7.88;;;12.60;70.90;;;;;;5056306;28;20427;-74
2021/03/30 04:31:28;;;;;;;25.50;8.45;;;12.60;70.90;;;;;;5059342;28;20430;-75
2021/03/30 04:33:54;;;;;;;21.23;7.90;;;12.50;71.00;;;;;;5055997;28;20482;-75
2021/03/30 04:36:21;;;;;;;18.50;7.20;;;12.60;70.70;;;;;;5057817;28;20933;-75
2021/03/30 04:38:48;;;;;;;21.52;7.35;;;12.50;70.10;;;;;;5059951;28;20512;-75
2021/03/30 04:41:14;;;;;;;19.02;8.27;;;12.50;69.80;;;;;;5060837;28;20427;-75
2021/03/30 04:43:41;;;;;;;19.63;7.07;;;12.50;69.70;;;;;;5037115;28;20427;-75
2021/03/30 04:46:07;;;;;;;25.20;7.70;;;12.50;69.40;;;;;;5061050;28;20517;-76
2021/03/30 04:48:34;;;;;;;18.73;7.25;;;12.50;69.30;;;;;;5062192;28;20792;-75
2021/03/30 04:51:00;;;;;;;16.15;7.20;;;12.50;68.90;;;;;;5058557;28;20431;-76
2021/03/30 04:53:27;;;;;;;17.10;7.18;;;12.50;68.60;;;;;;5044969;28;20431;-75
2021/03/30 04:55:54;;;;;;;17.87;7.20;;;12.40;68.40;;;;;;5056841;28;20424;-76
2021/03/30 04:58:20;;;;;;;17.33;7.00;;;12.40;68.10;;;;;;5056232;28;20473;-76
2021/03/30 05:00:47;;;;;;;19.20;7.23;;;12.40;67.30;;;;;;5059027;28;20485;-75
2021/03/30 05:03:13;;;;;;;15.47;6.50;;;12.40;67.20;;;;;;5041465;28;20419;-75
2021/03/30 05:05:39;;;;;;;16.08;6.53;;;12.40;67.20;;;;;;5062740;28;20814;-76
2021/03/30 05:08:06;;;;;;;17.42;6.90;;;12.40;67.50;;;;;;5059107;28;20431;-76
2021/03/30 05:10:32;;;;;;;16.05;7.18;;;12.40;67.90;;;;;;5047799;28;20930;-76
2021/03/30 05:12:59;;;;;;;18.60;7.35;;;12.40;68.50;;;;;;5059833;28;21201;-75
2021/03/30 05:15:26;;;;;;;19.73;7.40;;;12.30;69.20;;;;;;5059289;28;20989;-76
2021/03/30 05:17:52;;;;;;;20.38;7.78;;;12.30;70.10;;;;;;5060915;28;20988;-76
2021/03/30 05:20:19;;;;;;;20.17;7.60;;;12.30;70.70;;;;;;5061439;28;20429;-75
2021/03/30 05:22:45;;;;;;;20.53;7.57;;;12.30;71.00;;;;;;5065441;28;20422;-76
2021/03/30 05:25:13;;;;;;;19.45;7.05;;;12.30;71.10;;;;;;5064598;28;20431;-76
2021/03/30 05:27:39;;;;;;;18.42;7.43;;;12.30;70.70;;;;;;5062795;28;20491;-77
2021/03/30 05:30:09;;;;;;;19.75;7.32;;;12.30;70.60;;;;;;5060118;28;20415;-76
2021/03/30 05:32:35;;;;;;;20.55;7.57;;;12.30;70.00;;;;;;5062661;28;20955;-76
2021/03/30 05:35:02;;;;;;;18.15;7.20;;;12.20;69.70;;;;;;5041503;28;20426;-76
2021/03/30 05:37:28;;;;;;;18.20;6.90;;;12.20;69.40;;;;;;5057438;28;20433;-76
2021/03/30 05:39:55;;;;;;;18.75;7.07;;;12.30;69.30;;;;;;5062018;28;20850;-76
2021/03/30 05:42:21;;;;;;;14.90;6.72;;;12.20;68.70;;;;;;5056028;28;20424;-77
2021/03/30 05:44:52;;;;;;;15.50;7.13;;;12.20;68.10;;;;;;5062703;28;21184;-77
2021/03/30 05:47:21;;;;;;;16.27;7.30;;;12.20;68.30;;;;;;5057937;28;20894;-77
2021/03/30 05:49:49;;;;;;;17.42;7.80;;;12.20;68.10;;;;;;5062701;28;20477;-76
2021/03/30 05:52:23;;;;;;;20.42;7.50;;;12.20;67.80;;;;;;5055928;28;21181;-76
2021/03/30 05:54:51;;;;;;;16.33;7.32;;;12.20;67.40;;;;;;5059220;28;20440;-76
2021/03/30 05:57:18;;;;;;;15.85;7.47;;;12.20;67.30;;;;;;5061621;28;20467;-77
2021/03/30 05:59:51;;;;;;;18.05;8.27;;;12.20;67.10;;;;;;5058571;28;20423;-76
2021/03/30 06:02:23;;;;;;;18.03;7.90;;;12.20;67.20;;;;;;5060559;28;20435;-77
2021/03/30 06:04:50;;;;;;;16.10;8.40;;;12.20;67.60;;;;;;5055449;28;20425;-76
2021/03/30 06:07:17;;;;;;;20.77;9.48;;;12.20;68.00;;;;;;5059371;28;20945;-75
2021/03/30 06:09:47;;;;;;;21.33;9.27;;;12.20;68.40;;;;;;5054750;28;20419;-74
2021/03/30 06:12:16;;;;;;;19.23;9.38;;;12.10;69.80;;;;;;5045808;28;20477;-76
2021/03/30 06:14:45;;;;;;;21.95;9.77;;;12.10;69.70;;;;;;5054810;28;20917;-75
2021/03/30 06:17:13;;;;;;;21.48;9.45;;;12.00;70.20;;;;;;5057266;28;20883;-75
2021/03/30 06:19:54;;;;;;;21.98;9.95;;;11.90;71.20;;;;;;5061378;28;20944;-74
2021/03/30 06:22:23;;;;;;;21.65;9.85;;;11.90;71.30;;;;;;5059688;28;20468;-75
2021/03/30 06:24:52;;;;;;;24.17;10.20;;;11.90;71.50;;;;;;5059760;28;20425;-74
2021/03/30 06:27:24;;;;;;;21.70;9.88;;;11.90;71.80;;;;;;5059665;28;20580;-75
2021/03/30 06:29:52;;;;;;;22.15;10.27;;;11.90;72.10;;;;;;5055237;28;20432;-76
2021/03/30 06:32:20;;;;;;;22.60;11.13;;;11.90;72.50;;;;;;5062699;28;20428;-77
2021/03/30 06:34:49;;;;;;;21.30;10.75;;;11.90;72.70;;;;;;5059165;28;20427;-77
2021/03/30 06:37:36;;;;;;;23.67;11.18;;;12.00;73.30;;;;;;5044222;28;21020;-76
2021/03/30 06:40:10;;;;;;;19.88;10.40;;;12.00;74.10;;;;;;5057415;28;20419;-77
2021/03/30 06:42:40;;;;;;;24.20;11.27;;;12.00;74.80;;;;;;5040890;28;20436;-76
2021/03/30 06:45:15;;;;;;;21.77;11.27;;;12.00;75.70;;;;;;5043919;28;20427;-77
2021/03/30 06:47:42;;;;;;;19.73;11.50;;;12.00;76.70;;;;;;5058509;28;20423;-76
2021/03/30 06:50:18;;;;;;;21.50;12.15;;;12.00;77.50;;;;;;5063447;28;20488;-75
2021/03/30 06:52:45;;;;;;;23.47;12.13;;;12.00;77.90;;;;;;5058578;28;20885;-77
2021/03/30 06:55:13;;;;;;;22.30;11.70;;;12.00;77.90;;;;;;5058331;28;20435;-76
2021/03/30 06:57:43;;;;;;;23.63;11.67;;;12.00;77.50;;;;;;5063411;28;20433;-75
2021/03/30 07:00:13;;;;;;;22.20;12.50;;;12.10;77.40;;;;;;5056280;28;20513;-76
2021/03/30 07:02:46;;;;;;;25.63;12.27;;;12.10;77.70;;;;;;5034572;28;20429;-74
2021/03/30 07:05:23;;;;;;;23.02;12.70;;;12.10;77.50;;;;;;5059631;28;20840;-75
2021/03/30 07:07:53;;;;;;;20.95;13.07;;;12.10;78.70;;;;;;5060079;28;20797;-74
2021/03/30 07:10:20;;;;;;;27.23;13.40;;;12.10;79.30;;;;;;5058994;28;20842;-75
2021/03/30 07:12:48;;;;;;;22.40;13.00;;;12.10;79.20;;;;;;5044548;28;20747;-77
2021/03/30 07:15:16;;;;;;;23.92;13.70;;;12.10;79.50;;;;;;5055142;28;20849;-77
2021/03/30 07:17:43;;;;;;;24.92;13.50;;;12.20;79.70;;;;;;5059217;28;20424;-75
2021/03/30 07:20:11;;;;;;;24.27;13.60;;;12.20;79.80;;;;;;5060771;28;20784;-75
2021/03/30 07:22:41;;;;;;;24.77;13.55;;;12.20;80.30;;;;;;5056748;28;20440;-75
2021/03/30 07:25:12;;;;;;;23.63;13.63;;;12.20;79.80;;;;;;5054336;28;20433;-76
2021/03/30 07:27:58;;;;;;;24.15;13.32;;;12.30;80.20;;;;;;5057996;28;20428;-74
2021/03/30 07:30:25;;;;;;;22.17;12.48;;;12.20;80.60;;;;;;5041619;28;20421;-75
2021/03/30 07:33:04;;;;;;;22.00;13.32;;;12.30;78.50;;;;;;5042311;28;20545;-74
2021/03/30 07:35:33;;;;;;;24.83;13.75;;;12.30;78.60;;;;;;5038440;28;20491;-76
2021/03/30 07:38:06;;;;;;;23.33;12.75;;;12.30;78.50;;;;;;5035583;28;20433;-74
2021/03/30 07:40:36;;;;;;;23.15;12.65;;;12.40;78.80;;;;;;5037144;28;20963;-76
2021/03/30 07:43:04;;;;;;;23.23;13.23;;;12.40;78.20;;;;;;5039050;28;20425;-76
2021/03/30 07:45:33;;;;;;;24.60;12.70;;;12.40;77.80;;;;;;5037293;28;20449;-76
2021/03/30 07:48:00;;;;;;;25.20;13.55;;;12.50;78.00;;;;;;5040490;28;20428;-74
2021/03/30 07:50:49;;;;;;;29.00;12.98;;;12.50;77.90;;;;;;5037087;28;20423;-75
2021/03/30 07:53:38;;;;;;;25.67;12.48;;;12.60;77.90;;;;;;5038582;28;20948;-74
2021/03/30 07:56:06;;;;;;;23.48;12.38;;;12.60;76.90;;;;;;5047216;28;20504;-74
2021/03/30 07:58:40;;;;;;;20.38;11.68;;;12.70;76.10;;;;;;5040737;28;20446;-75
2021/03/30 08:01:08;;;;;;;24.38;11.55;;;12.80;75.80;;;;;;5045937;28;20428;-75
2021/03/30 08:03:36;;;;;;;22.75;11.00;;;12.90;74.70;;;;;;5045271;28;20421;-74
2021/03/30 08:06:18;;;;;;;18.50;9.75;;;12.90;73.60;;;;;;5037837;28;21046;-75
2021/03/30 08:08:55;;;;;;;19.45;10.18;;;13.00;71.60;;;;;;5041317;28;20547;-76
2021/03/30 08:11:55;;;;;;;22.40;10.43;;;13.10;71.00;;;;;;5040438;28;20429;-74
2021/03/30 08:14:41;;;;;;;21.92;10.68;;;13.20;71.60;;;;;;5045217;28;20432;-75
2021/03/30 08:17:21;;;;;;;20.03;10.80;;;13.30;71.30;;;;;;5031900;28;20894;-74
2021/03/30 08:20:12;;;;;;;19.67;10.70;;;13.30;71.60;;;;;;5038462;28;20828;-76
2021/03/30 08:22:57;;;;;;;23.48;11.05;;;13.40;71.80;;;;;;5035875;28;20911;-74
2021/03/30 08:25:25;;;;;;;20.52;11.45;;;13.50;72.00;;;;;;5032213;28;20432;-75
2021/03/30 08:27:52;;;;;;;25.27;11.53;;;13.60;71.90;;;;;;5039692;28;20425;-74
2021/03/30 08:30:55;;;;;;;20.27;10.70;;;13.60;72.10;;;;;;5050081;28;21641;-77
2021/03/30 08:33:24;;;;;;;19.33;10.60;;;13.70;72.10;;;;;;5061705;28;21451;-75
2021/03/30 08:35:50;;;;;;;19.23;10.75;;;13.80;71.10;;;;;;5057468;28;20433;-75
2021/03/30 08:38:41;;;;;;;23.37;10.73;;;13.80;70.00;;;;;;5053684;28;20431;-75
2021/03/30 08:41:08;;;;;;;25.73;11.23;;;13.90;70.40;;;;;;5041429;28;20425;-75
2021/03/30 08:43:35;;;;;;;23.47;10.63;;;14.00;70.90;;;;;;5061169;28;21089;-75
2021/03/30 08:46:06;;;;;;;22.67;10.50;;;14.10;71.20;;;;;;5062268;28;20458;-75
2021/03/30 08:48:35;;;;;;;24.90;11.00;;;14.20;70.50;;;;;;5060300;28;20435;-76
2021/03/30 08:51:03;;;;;;;20.45;10.30;;;14.30;68.90;;;;;;5058342;28;20439;-77
2021/03/30 08:53:32;;;;;;;21.85;9.93;;;14.30;68.50;;;;;;5058301;28;20924;-76
2021/03/30 08:56:00;;;;;;;18.48;8.68;;;14.40;67.60;;;;;;5063000;28;20427;-76
2021/03/30 08:58:29;;;;;;;18.27;9.10;;;14.50;64.00;;;;;;5055561;28;20909;-76
2021/03/30 09:01:06;;;;;;;17.17;8.83;;;14.60;63.00;;;;;;5059627;28;20419;-76
2021/03/30 09:03:32;;;;;;;15.05;8.70;;;14.70;63.00;;;;;;5043678;28;20516;-74
2021/03/30 09:05:58;;;;;;;20.90;8.53;;;14.80;63.50;;;;;;5060028;28;20458;-75
2021/03/30 09:08:35;;;;;;;15.23;8.60;;;14.80;62.10;;;;;;5061732;28;20984;-75
2021/03/30 09:11:19;;;;;;;17.05;8.70;;;14.90;62.40;;;;;;5059494;28;20966;-75
2021/03/30 09:14:08;;;;;;;17.77;8.90;;;15.00;62.10;;;;;;5058905;28;20932;-74
2021/03/30 09:16:36;;;;;;;17.27;9.23;;;15.10;62.80;;;;;;5051613;28;20442;-75
2021/03/30 09:19:14;;;;;;;17.30;9.52;;;15.20;63.50;;;;;;5038933;28;20423;-77
2021/03/30 09:21:41;;;;;;;18.98;9.80;;;15.40;63.20;;;;;;5055823;28;20583;-74
2021/03/30 09:24:13;;;;;;;20.85;10.15;;;15.50;63.30;;;;;;5055971;28;20427;-75
2021/03/30 09:26:41;;;;;;;18.85;9.70;;;15.50;62.90;;;;;;5057622;28;20436;-75
2021/03/30 09:29:08;;;;;;;18.17;9.93;;;15.60;63.00;;;;;;5058412;28;20423;-75
2021/03/30 09:31:35;;;;;;;22.85;9.75;;;15.70;62.20;;;;;;5042828;28;20415;-75
2021/03/30 09:34:02;;;;;;;22.83;10.13;;;15.80;61.10;;;;;;5058366;28;20431;-76
2021/03/30 09:36:28;;;;;;;19.75;10.50;;;15.90;61.60;;;;;;5053687;28;20467;-75
2021/03/30 09:38:57;;;;;;;24.67;11.15;;;16.00;61.60;;;;;;5056197;28;20480;-75
2021/03/30 09:41:42;;;;;;;20.30;11.10;;;16.10;62.20;;;;;;5058370;28;20434;-75
2021/03/30 09:44:10;;;;;;;26.03;11.40;;;16.20;62.60;;;;;;5054387;28;20428;-74
2021/03/30 09:46:37;;;;;;;24.27;10.40;;;16.30;63.00;;;;;;5056205;28;20895;-74
2021/03/30 09:49:07;;;;;;;21.45;11.00;;;16.40;61.30;;;;;;5054614;28;20428;-75
2021/03/30 09:51:34;;;;;;;20.57;11.20;;;16.40;62.50;;;;;;5050061;28;20537;-75
2021/03/30 09:54:01;;;;;;;20.90;11.32;;;16.50;61.60;;;;;;5049739;28;20866;-75
2021/03/30 09:56:31;;;;;;;26.25;11.15;;;16.60;61.10;;;;;;5061270;28;20440;-73
2021/03/30 09:58:59;;;;;;;20.50;10.68;;;16.70;60.50;;;;;;5056016;28;20429;-74
2021/03/30 10:01:27;;;;;;;28.80;11.90;;;16.80;59.40;;;;;;5060210;28;20429;-75
2021/03/30 10:03:55;;;;;;;17.92;9.77;;;16.90;60.70;;;;;;5061433;28;20508;-76
2021/03/30 10:06:21;;;;;;;20.30;10.13;;;17.00;58.60;;;;;;5065101;28;20432;-75
2021/03/30 10:08:48;;;;;;;22.92;11.38;;;17.00;58.20;;;;;;5065309;28;20466;-74
2021/03/30 10:11:26;;;;;;;20.67;11.45;;;17.10;59.00;;;;;;5065283;28;20429;-75
2021/03/30 10:13:52;;;;;;;20.42;11.00;;;17.20;58.60;;;;;;5056908;28;20432;-75
2021/03/30 10:16:19;;;;;;;21.15;10.70;;;17.30;58.40;;;;;;5060758;28;20430;-73
2021/03/30 10:18:46;;;;;;;19.60;10.23;;;17.40;58.30;;;;;;5061601;28;20510;-73
2021/03/30 10:21:17;;;;;;;21.75;10.30;;;17.50;57.60;;;;;;5062417;28;20487;-74
2021/03/30 10:23:47;;;;;;;20.50;10.00;;;17.60;56.50;;;;;;5060477;28;20430;-74
2021/03/30 10:26:15;;;;;;;19.48;10.98;;;17.60;55.60;;;;;;5060745;28;20425;-74
2021/03/30 10:28:50;;;;;;;18.03;9.93;;;17.70;55.90;;;;;;5061573;28;20973;-74
2021/03/30 10:31:28;;;;;;;18.20;10.50;;;17.80;57.00;;;;;;5063880;28;20427;-75
2021/03/30 10:33:54;;;;;;;36.53;18.57;;;17.90;56.90;;;;;;5062192;28;20430;-74
2021/03/30 10:36:22;;;;;;;24.23;12.00;;;18.00;56.40;;;;;;5058311;28;20458;-73
2021/03/30 10:39:05;;;;;;;22.43;11.17;;;18.10;57.00;;;;;;5055620;28;20428;-75
2021/03/30 10:41:33;;;;;;;16.23;9.82;;;18.30;56.10;;;;;;5059092;28;20417;-74
2021/03/30 10:44:00;;;;;;;16.77;9.60;;;18.30;54.70;;;;;;5056940;28;20423;-74
2021/03/30 10:46:26;;;;;;;18.63;9.77;;;18.40;54.20;;;;;;5054486;28;20428;-74
2021/03/30 10:49:00;;;;;;;19.75;9.57;;;18.50;54.70;;;;;;5038325;28;20867;-74
2021/03/30 10:51:28;;;;;;;20.02;9.65;;;18.60;55.20;;;;;;5041583;28;20432;-74
2021/03/30 10:53:54;;;;;;;17.20;9.30;;;18.70;56.10;;;;;;5057158;28;20425;-73
2021/03/30 10:56:21;;;;;;;19.00;9.38;;;18.90;55.30;;;;;;5059904;28;20912;-73
2021/03/30 10:58:47;;;;;;;20.10;10.00;;;19.00;52.80;;;;;;5059071;28;20913;-74
2021/03/30 11:01:14;;;;;;;16.83;9.38;;;19.00;52.30;;;;;;5054920;28;20477;-75
2021/03/30 11:03:40;;;;;;;16.30;9.90;;;19.10;52.70;;;;;;5061247;28;20429;-75
2021/03/30 11:06:06;;;;;;;16.30;9.57;;;19.20;52.40;;;;;;5041812;28;20436;-75
2021/03/30 11:08:33;;;;;;;17.92;9.25;;;19.30;52.50;;;;;;5060207;28;20427;-75
2021/03/30 11:11:00;;;;;;;20.38;9.50;;;19.40;52.70;;;;;;5063657;28;20425;-75
2021/03/30 11:13:26;;;;;;;18.60;9.70;;;19.50;51.20;;;;;;5057766;28;20421;-74
2021/03/30 11:15:53;;;;;;;18.83;9.82;;;19.50;50.90;;;;;;5061247;28;20532;-73
2021/03/30 11:18:19;;;;;;;18.27;9.45;;;19.60;50.40;;;;;;5042045;28;20460;-76
2021/03/30 11:20:46;;;;;;;15.30;9.38;;;19.60;49.70;;;;;;5060611;28;20420;-74
2021/03/30 11:23:12;;;;;;;18.00;10.20;;;19.60;49.20;;;;;;5062389;28;20514;-74
2021/03/30 11:25:40;;;;;;;22.10;11.43;;;19.70;50.50;;;;;;5063112;28;20431;-73
2021/03/30 11:28:09;;;;;;;21.42;10.60;;;19.70;50.80;;;;;;5056215;28;20425;-77
2021/03/30 11:30:39;;;;;;;21.02;10.40;;;19.80;50.90;;;;;;5058020;28;20420;-75
2021/03/30 11:33:10;;;;;;;22.77;10.48;;;19.80;51.10;;;;;;5043428;28;20543;-76
2021/03/30 11:35:37;;;;;;;25.00;11.68;;;19.90;50.70;;;;;;5057445;28;20439;-77
2021/03/30 11:38:09;;;;;;;22.42;11.60;;;20.10;50.30;;;;;;5062792;28;20552;-75
2021/03/30 11:40:35;;;;;;;19.40;11.10;;;20.10;50.30;;;;;;5052871;28;20904;-75
2021/03/30 11:43:03;;;;;;;21.13;11.10;;;20.30;50.40;;;;;;5062700;28;20423;-74
2021/03/30 11:45:29;;;;;;;23.25;10.95;;;20.40;49.60;;;;;;5041810;28;20459;-74
2021/03/30 11:47:55;;;;;;;19.02;11.55;;;20.60;49.10;;;;;;5056669;28;20423;-76
2021/03/30 11:50:22;;;;;;;22.35;12.50;;;20.60;48.20;;;;;;5055710;28;20442;-75
2021/03/30 11:52:49;;;;;;;24.17;12.52;;;20.70;48.40;;;;;;5054010;28;20518;-75
2021/03/30 11:55:15;;;;;;;24.05;12.45;;;20.80;48.00;;;;;;5053080;28;20431;-75
2021/03/30 11:57:43;;;;;;;23.33;13.18;;;20.90;48.00;;;;;;5055097;28;20438;-74
2021/03/30 12:00:12;;;;;;;22.98;12.70;;;20.90;46.30;;;;;;5056945;28;20413;-75
2021/03/30 12:02:38;;;;;;;20.80;11.07;;;21.00;46.70;;;;;;5058910;28;20419;-75
2021/03/30 12:05:06;;;;;;;22.10;12.43;;;21.00;46.10;;;;;;5053932;28;20425;-74
2021/03/30 12:07:33;;;;;;;23.23;12.63;;;21.20;46.00;;;;;;5042494;28;20435;-75
2021/03/30 12:09:59;;;;;;;23.53;13.80;;;21.30;47.00;;;;;;5058281;28;20458;-74
2021/03/30 12:12:26;;;;;;;25.30;13.70;;;21.40;47.70;;;;;;5042754;28;20503;-74
2021/03/30 12:14:52;;;;;;;24.93;13.10;;;21.60;46.70;;;;;;5042873;28;20415;-75
2021/03/30 12:17:19;;;;;;;21.35;13.40;;;21.70;46.30;;;;;;5044040;28;20426;-74
2021/03/30 12:19:46;;;;;;;22.27;13.68;;;21.80;46.00;;;;;;5055422;28;20421;-74
2021/03/30 12:22:12;;;;;;;21.45;12.43;;;21.90;45.30;;;;;;5055419;28;20908;-74
2021/03/30 12:24:39;;;;;;;25.15;12.85;;;22.00;45.40;;;;;;5052361;28;20481;-75
2021/03/30 12:27:09;;;;;;;21.85;12.85;;;22.10;44.40;;;;;;5056407;28;20436;-73
2021/03/30 12:29:36;;;;;;;22.63;12.63;;;22.30;44.20;;;;;;5058488;28;20413;-73
2021/03/30 12:32:03;;;;;;;21.65;12.00;;;22.40;44.50;;;;;;5043945;28;20757;-74
2021/03/30 12:34:30;;;;;;;19.60;12.60;;;22.60;44.60;;;;;;5050724;28;20433;-75
2021/03/30 12:36:57;;;;;;;26.60;13.77;;;22.70;44.40;;;;;;5055263;28;20424;-75
2021/03/30 12:39:23;;;;;;;24.20;13.10;;;22.80;44.40;;;;;;5056660;28;20920;-76
2021/03/30 12:41:49;;;;;;;21.98;12.57;;;22.90;44.30;;;;;;5050655;28;20941;-74
2021/03/30 12:44:18;;;;;;;25.85;13.43;;;23.00;43.60;;;;;;5051546;28;20767;-73